createdAt,value
2022-12-15T00:00:48.234Z,8.80
2022-12-15T00:04:11.102Z,8.50
2022-12-15T00:07:34.322Z,9.07
2022-12-15T00:10:57.505Z,8.73
2022-12-15T00:14:20.231Z,8.20
2022-12-15T00:17:43.242Z,7.32
2022-12-15T00:21:05.907Z,7.22
2022-12-15T00:24:28.484Z,6.72
2022-12-15T00:27:51.170Z,6.82
2022-12-15T00:31:16.566Z,8.05
2022-12-15T00:34:39.329Z,8.35
2022-12-15T00:38:02.261Z,7.70
2022-12-15T00:41:06.583Z,8.02
2022-12-15T00:44:15.756Z,8.85
2022-12-15T00:47:21.759Z,8.55
2022-12-15T00:50:44.621Z,7.65
2022-12-15T00:54:07.359Z,8.20
2022-12-15T00:57:30.219Z,7.32
2022-12-15T01:00:53.048Z,6.75
2022-12-15T01:04:16.052Z,7.72
2022-12-15T01:07:39.357Z,6.37
2022-12-15T01:11:02.294Z,7.57
2022-12-15T01:14:25.094Z,6.55
2022-12-15T01:17:48.555Z,7.82
2022-12-15T01:21:05.165Z,7.23
2022-12-15T01:24:09.654Z,6.80
2022-12-15T01:27:14.428Z,7.68
2022-12-15T01:30:23.356Z,7.32
2022-12-15T01:33:28.429Z,6.80
2022-12-15T01:36:33.195Z,7.03
2022-12-15T01:39:56.528Z,7.43
2022-12-15T01:43:01.312Z,7.68
2022-12-15T01:46:11.301Z,7.95
2022-12-15T01:49:26.570Z,8.05
2022-12-15T01:52:31.219Z,8.02
2022-12-15T01:55:36.807Z,8.57
2022-12-15T01:58:44.844Z,7.90
2022-12-15T02:01:49.996Z,7.75
2022-12-15T02:04:59.030Z,8.65
2022-12-15T02:08:05.037Z,7.82
2022-12-15T02:11:51.304Z,8.15
2022-12-15T02:15:52.006Z,7.95
2022-12-15T02:19:25.997Z,7.30
2022-12-15T02:23:04.811Z,6.65
2022-12-15T02:26:58.584Z,8.02
2022-12-15T02:30:28.587Z,7.60
2022-12-15T02:33:35.310Z,7.70
2022-12-15T02:36:44.891Z,7.43
2022-12-15T02:39:49.392Z,6.45
2022-12-15T02:42:57.212Z,7.45
2022-12-15T02:46:18.631Z,7.55
2022-12-15T02:50:04.071Z,8.43
2022-12-15T02:53:40.732Z,8.40
2022-12-15T02:57:06.047Z,7.43
2022-12-15T03:00:12.756Z,7.68
2022-12-15T03:03:20.529Z,6.72
2022-12-15T03:06:26.670Z,9.10
2022-12-15T03:09:32.523Z,7.55
2022-12-15T03:12:37.179Z,7.78
2022-12-15T03:15:41.902Z,7.63
2022-12-15T03:18:47.142Z,7.38
2022-12-15T03:21:53.046Z,8.15
2022-12-15T03:24:58.274Z,8.18
2022-12-15T03:28:02.575Z,7.28
2022-12-15T03:31:07.273Z,6.90
2022-12-15T03:34:12.233Z,6.95
2022-12-15T03:37:17.064Z,7.65
2022-12-15T03:40:21.254Z,6.70
2022-12-15T03:43:25.801Z,6.80
2022-12-15T03:46:30.519Z,6.75
2022-12-15T03:49:34.872Z,7.20
2022-12-15T03:52:39.189Z,6.55
2022-12-15T03:55:44.091Z,7.45
2022-12-15T03:58:48.610Z,7.53
2022-12-15T04:01:53.189Z,7.80
2022-12-15T04:04:57.957Z,6.57
2022-12-15T04:08:03.899Z,7.45
2022-12-15T04:11:08.654Z,7.03
2022-12-15T04:14:13.300Z,7.57
2022-12-15T04:17:17.946Z,7.40
2022-12-15T04:20:23.072Z,8.05
2022-12-15T04:23:27.949Z,7.40
2022-12-15T04:26:51.175Z,7.47
2022-12-15T04:30:13.946Z,7.55
2022-12-15T04:33:38.677Z,7.05
2022-12-15T04:37:04.371Z,6.30
2022-12-15T04:40:28.362Z,6.15
2022-12-15T04:43:51.264Z,6.57
2022-12-15T04:47:14.593Z,7.15
2022-12-15T04:50:37.691Z,7.40
2022-12-15T04:54:04.854Z,6.33
2022-12-15T04:57:27.741Z,6.78
2022-12-15T05:00:50.620Z,6.60
2022-12-15T05:04:13.272Z,7.47
2022-12-15T05:07:36.737Z,5.95
2022-12-15T05:10:59.544Z,6.55
2022-12-15T05:14:22.368Z,6.82
2022-12-15T05:17:45.135Z,7.30
2022-12-15T05:21:08.311Z,6.93
2022-12-15T05:24:31.079Z,7.35
2022-12-15T05:27:53.777Z,6.55
2022-12-15T05:31:16.608Z,6.70
2022-12-15T05:34:28.528Z,6.35
2022-12-15T05:37:33.057Z,6.78
2022-12-15T05:40:37.575Z,6.95
2022-12-15T05:43:42.124Z,6.85
2022-12-15T05:46:47.340Z,7.85
2022-12-15T05:49:52.030Z,6.80
2022-12-15T05:52:59.780Z,7.45
2022-12-15T05:56:07.793Z,7.53
2022-12-15T05:59:13.268Z,7.30
2022-12-15T06:02:18.246Z,6.90
2022-12-15T06:05:23.120Z,6.88
2022-12-15T06:08:30.851Z,7.30
2022-12-15T06:11:35.419Z,6.90
2022-12-15T06:14:40.035Z,7.18
2022-12-15T06:17:44.680Z,7.38
2022-12-15T06:20:59.213Z,8.52
2022-12-15T06:24:06.288Z,7.35
2022-12-15T06:27:10.424Z,8.23
2022-12-15T06:30:16.151Z,8.52
2022-12-15T06:33:22.588Z,7.60
2022-12-15T06:36:28.658Z,8.63
2022-12-15T06:39:33.679Z,9.05
2022-12-15T06:42:38.435Z,8.65
2022-12-15T06:45:50.026Z,8.10
2022-12-15T06:48:55.402Z,9.10
2022-12-15T06:52:00.009Z,8.10
2022-12-15T06:55:05.182Z,6.65
2022-12-15T06:58:10.214Z,7.53
2022-12-15T07:01:15.505Z,7.53
2022-12-15T07:04:20.035Z,8.10
2022-12-15T07:07:25.813Z,7.20
2022-12-15T07:10:30.354Z,8.68
2022-12-15T07:13:35.444Z,8.80
2022-12-15T07:16:41.107Z,7.68
2022-12-15T07:19:45.940Z,6.90
2022-12-15T07:22:52.204Z,7.10
2022-12-15T07:25:56.876Z,6.00
2022-12-15T07:29:01.662Z,7.28
2022-12-15T07:32:06.595Z,8.02
2022-12-15T07:35:12.337Z,7.35
2022-12-15T07:38:16.962Z,6.38
2022-12-15T07:41:21.678Z,6.25
2022-12-15T07:44:26.535Z,7.72
2022-12-15T07:47:32.150Z,7.68
2022-12-15T07:50:39.982Z,8.18
2022-12-15T07:53:44.867Z,8.90
2022-12-15T07:56:50.432Z,7.80
2022-12-15T07:59:55.786Z,7.95
2022-12-15T08:03:02.871Z,7.53
2022-12-15T08:06:13.858Z,8.18
2022-12-15T08:09:19.185Z,8.18
2022-12-15T08:12:23.917Z,6.38
2022-12-15T08:15:28.481Z,7.35
2022-12-15T08:18:33.623Z,7.85
2022-12-15T08:21:40.515Z,8.15
2022-12-15T08:24:45.570Z,9.02
2022-12-15T08:27:53.320Z,8.68
2022-12-15T08:31:04.255Z,8.60
2022-12-15T08:34:10.641Z,9.18
2022-12-15T08:37:15.653Z,9.20
2022-12-15T08:40:20.355Z,8.43
2022-12-15T08:43:25.060Z,9.23
2022-12-15T08:46:34.879Z,9.90
2022-12-15T08:49:40.113Z,9.45
2022-12-15T08:53:00.631Z,10.85
2022-12-15T08:56:13.068Z,10.10
2022-12-15T08:59:18.009Z,10.07
2022-12-15T09:02:22.481Z,9.30
2022-12-15T09:05:27.385Z,9.55
2022-12-15T09:08:34.310Z,10.52
2022-12-15T09:11:39.122Z,9.68
2022-12-15T09:14:44.560Z,10.20
2022-12-15T09:17:48.961Z,11.50
2022-12-15T09:20:54.627Z,10.35
2022-12-15T09:24:02.115Z,10.52
2022-12-15T09:27:06.728Z,10.57
2022-12-15T09:30:11.808Z,10.65
2022-12-15T09:33:16.427Z,11.65
2022-12-15T09:36:22.466Z,11.43
2022-12-15T09:39:27.615Z,12.30
2022-12-15T09:42:32.664Z,13.07
2022-12-15T09:45:43.637Z,12.73
2022-12-15T09:48:50.338Z,12.57
2022-12-15T09:52:15.983Z,12.93
2022-12-15T09:55:30.839Z,13.13
2022-12-15T09:58:50.669Z,12.68
2022-12-15T10:02:21.119Z,12.90
2022-12-15T10:06:16.252Z,12.75
2022-12-15T10:09:29.949Z,12.55
2022-12-15T10:12:38.888Z,13.98
2022-12-15T10:15:57.509Z,13.85
2022-12-15T10:19:20.036Z,13.55
2022-12-15T10:22:28.651Z,14.50
2022-12-15T10:25:33.507Z,14.73
2022-12-15T10:29:03.215Z,15.82
2022-12-15T10:32:25.986Z,14.73
2022-12-15T10:35:33.520Z,14.48
2022-12-15T10:38:42.567Z,14.80
2022-12-15T10:42:25.093Z,15.38
2022-12-15T10:45:39.664Z,15.77
2022-12-15T10:48:51.055Z,16.50
2022-12-15T10:52:01.161Z,14.63
2022-12-15T10:55:36.059Z,15.77
2022-12-15T10:59:31.867Z,13.73
2022-12-15T11:02:37.286Z,14.60
2022-12-15T11:05:56.013Z,17.05
2022-12-15T11:09:34.482Z,15.85
2022-12-15T11:12:58.292Z,15.15
2022-12-15T11:16:17.716Z,14.23
2022-12-15T11:19:41.084Z,14.98
2022-12-15T11:22:58.331Z,14.88
2022-12-15T11:26:27.832Z,14.65
2022-12-15T11:30:09.430Z,16.40
2022-12-15T11:33:14.926Z,16.05
2022-12-15T11:36:22.092Z,16.77
2022-12-15T11:39:49.388Z,16.42
2022-12-15T11:43:30.060Z,15.23
2022-12-15T11:47:29.078Z,16.90
2022-12-15T11:50:53.883Z,15.75
2022-12-15T11:54:10.982Z,15.95
2022-12-15T11:58:00.813Z,16.15
2022-12-15T12:01:55.442Z,17.13
2022-12-15T12:05:17.123Z,16.27
2022-12-15T12:08:46.929Z,16.95
2022-12-15T12:12:04.927Z,14.37
2022-12-15T12:15:44.167Z,17.90
2022-12-15T12:18:56.632Z,17.67
2022-12-15T12:22:11.557Z,17.50
2022-12-15T12:25:21.252Z,17.90
2022-12-15T12:28:43.241Z,18.08
2022-12-15T12:32:14.279Z,19.27
2022-12-15T12:35:58.996Z,18.77
2022-12-15T12:42:29.187Z,21.40
2022-12-15T12:45:57.163Z,20.30
2022-12-15T12:49:38.415Z,18.80
2022-12-15T12:52:55.500Z,16.48
2022-12-15T12:56:00.251Z,17.02
2022-12-15T12:59:30.666Z,18.13
2022-12-15T13:02:37.497Z,16.35
2022-12-15T13:05:44.402Z,17.38
2022-12-15T13:08:52.934Z,18.83
2022-12-15T13:12:14.871Z,20.95
2022-12-15T13:15:39.210Z,20.17
2022-12-15T13:19:06.660Z,18.25
2022-12-15T13:22:33.689Z,20.15
2022-12-15T13:25:40.624Z,18.55
2022-12-15T13:28:49.540Z,18.08
2022-12-15T13:31:55.379Z,18.38
2022-12-15T13:35:13.232Z,18.60
2022-12-15T13:38:18.928Z,19.60
2022-12-15T13:41:24.678Z,18.98
2022-12-15T13:44:51.556Z,18.98
2022-12-15T13:47:57.205Z,19.77
2022-12-15T13:51:26.010Z,19.05
2022-12-15T13:54:37.325Z,18.63
2022-12-15T13:57:55.467Z,16.67
2022-12-15T14:01:01.025Z,19.15
2022-12-15T14:04:15.514Z,17.83
2022-12-15T14:07:20.001Z,17.17
2022-12-15T14:10:35.350Z,16.67
2022-12-15T14:13:40.360Z,18.65
2022-12-15T14:16:45.122Z,17.05
2022-12-15T14:19:53.622Z,17.13
2022-12-15T14:22:59.003Z,18.25
2022-12-15T14:26:11.241Z,17.08
2022-12-15T14:29:17.403Z,17.15
2022-12-15T14:32:21.994Z,17.60
2022-12-15T14:35:36.792Z,16.92
2022-12-15T14:39:02.816Z,16.88
2022-12-15T14:42:12.595Z,15.68
2022-12-15T14:45:26.445Z,16.00
2022-12-15T14:48:53.856Z,16.35
2022-12-15T14:52:03.004Z,15.75
2022-12-15T14:55:37.720Z,17.85
2022-12-15T15:05:07.707Z,14.80
2022-12-15T15:08:33.294Z,14.75
2022-12-15T15:11:41.506Z,16.35
2022-12-15T15:15:08.029Z,17.95
2022-12-15T15:18:15.400Z,16.80
2022-12-15T15:21:27.438Z,17.77
2022-12-15T15:24:40.000Z,17.40
2022-12-15T15:27:44.497Z,17.73
2022-12-15T15:31:20.866Z,18.70
2022-12-15T15:34:26.364Z,18.13
2022-12-15T15:37:32.522Z,17.52
2022-12-15T15:40:37.426Z,18.15
2022-12-15T15:43:42.958Z,19.75
2022-12-15T15:46:51.750Z,18.08
2022-12-15T15:49:59.624Z,19.30
2022-12-15T15:53:04.807Z,17.95
2022-12-15T15:56:16.294Z,19.27
2022-12-15T15:59:21.573Z,19.05
2022-12-15T16:02:26.593Z,19.10
2022-12-15T16:05:30.969Z,18.98
2022-12-15T16:08:37.018Z,19.60
2022-12-15T16:11:41.803Z,18.67
2022-12-15T16:14:46.722Z,19.20
2022-12-15T16:17:52.692Z,17.95
2022-12-15T16:20:57.500Z,19.67
2022-12-15T16:24:16.427Z,19.88
2022-12-15T16:27:20.723Z,19.15
2022-12-15T16:30:28.903Z,18.70
2022-12-15T16:33:33.718Z,19.83
2022-12-15T16:36:40.425Z,20.83
2022-12-15T16:39:45.427Z,20.10
2022-12-15T16:43:00.541Z,18.98
2022-12-15T16:46:05.810Z,18.52
2022-12-15T16:49:10.767Z,18.33
2022-12-15T16:52:21.085Z,19.48
2022-12-15T16:55:28.738Z,21.13
2022-12-15T16:58:35.863Z,19.92
2022-12-15T17:01:41.105Z,19.52
2022-12-15T17:04:45.776Z,19.75
2022-12-15T17:07:55.765Z,19.58
2022-12-15T17:11:01.174Z,19.98
2022-12-15T17:14:06.787Z,19.50
2022-12-15T17:17:15.700Z,19.33
2022-12-15T17:20:30.242Z,19.05
2022-12-15T17:23:36.403Z,20.60
2022-12-15T17:26:42.684Z,21.38
2022-12-15T17:29:47.622Z,21.98
2022-12-15T17:32:52.573Z,21.00
2022-12-15T17:36:02.431Z,19.75
2022-12-15T17:39:10.704Z,21.30
2022-12-15T17:42:20.695Z,20.85
2022-12-15T17:45:25.771Z,19.73
2022-12-15T17:48:30.587Z,20.15
2022-12-15T17:51:35.585Z,20.02
2022-12-15T17:54:40.135Z,22.02
2022-12-15T17:57:45.047Z,20.80
2022-12-15T18:00:55.684Z,21.10
2022-12-15T18:04:00.090Z,19.98
2022-12-15T18:07:05.054Z,23.63
2022-12-15T18:10:36.378Z,25.30
2022-12-15T18:13:42.060Z,23.02
2022-12-15T18:16:47.572Z,25.55
2022-12-15T18:19:52.189Z,26.38
2022-12-15T18:22:57.185Z,24.42
2022-12-15T18:26:03.325Z,24.33
2022-12-15T18:29:18.219Z,24.17
2022-12-15T18:32:26.282Z,23.15
2022-12-15T18:35:43.084Z,21.90
2022-12-15T18:38:48.749Z,23.95
2022-12-15T18:41:56.519Z,23.13
2022-12-15T18:45:05.025Z,20.90
2022-12-15T18:48:27.191Z,22.33
2022-12-15T18:51:32.324Z,22.05
2022-12-15T18:54:36.991Z,21.90
2022-12-15T18:57:41.791Z,23.30
2022-12-15T19:00:47.362Z,27.95
2022-12-15T19:03:52.236Z,27.27
2022-12-15T19:06:56.699Z,24.75
2022-12-15T19:10:01.411Z,24.48
2022-12-15T19:13:14.187Z,24.20
2022-12-15T19:16:20.537Z,25.35
2022-12-15T19:19:43.865Z,23.55
2022-12-15T19:22:49.622Z,23.33
2022-12-15T19:25:54.782Z,22.55
2022-12-15T19:28:59.677Z,20.50
2022-12-15T19:32:04.344Z,20.73
2022-12-15T19:35:09.600Z,21.85
2022-12-15T19:38:28.766Z,23.08
2022-12-15T19:41:38.088Z,22.70
2022-12-15T19:44:42.935Z,21.67
2022-12-15T19:47:48.131Z,23.00
2022-12-15T19:50:54.731Z,20.73
2022-12-15T19:54:00.873Z,21.20
2022-12-15T19:57:14.713Z,21.35
2022-12-15T20:03:29.533Z,21.52
2022-12-15T20:06:35.115Z,22.85
2022-12-15T20:09:40.367Z,22.70
2022-12-15T20:12:45.241Z,20.65
2022-12-15T20:15:51.292Z,20.55
2022-12-15T20:18:56.438Z,19.45
2022-12-15T20:22:04.507Z,20.00
2022-12-15T20:25:20.287Z,20.88
2022-12-15T20:28:29.074Z,20.77
2022-12-15T20:31:34.104Z,19.92
2022-12-15T20:34:39.146Z,18.42
2022-12-15T20:37:44.571Z,18.58
2022-12-15T20:40:49.504Z,19.90
2022-12-15T20:43:56.228Z,18.95
2022-12-15T20:47:02.085Z,19.20
2022-12-15T20:50:29.176Z,18.95
2022-12-15T20:53:34.487Z,19.65
2022-12-15T20:56:39.299Z,19.45
2022-12-15T20:59:44.799Z,18.50
2022-12-15T21:02:50.127Z,19.90
2022-12-15T21:05:58.447Z,22.58
2022-12-15T21:09:03.512Z,22.55
2022-12-15T21:12:27.683Z,22.77
2022-12-15T21:15:32.423Z,21.63
2022-12-15T21:19:18.528Z,21.70
2022-12-15T21:22:01.869Z,20.85
2022-12-15T21:25:23.050Z,21.58
2022-12-15T21:28:27.933Z,20.27
2022-12-15T21:31:32.354Z,19.58
2022-12-15T21:34:37.700Z,17.80
2022-12-15T21:37:45.011Z,18.42
2022-12-15T21:40:52.208Z,18.48
2022-12-15T21:44:02.242Z,17.63
2022-12-15T21:47:46.196Z,16.65
2022-12-15T21:50:50.959Z,17.17
2022-12-15T21:53:57.450Z,15.93
2022-12-15T21:57:02.857Z,16.95
2022-12-15T22:00:17.615Z,16.95
2022-12-15T22:03:22.575Z,16.67
2022-12-15T22:06:30.303Z,15.82
2022-12-15T22:09:35.026Z,17.17
2022-12-15T22:12:42.755Z,17.98
2022-12-15T22:15:49.063Z,18.05
2022-12-15T22:18:56.634Z,18.35
2022-12-15T22:22:01.167Z,16.73
2022-12-15T22:25:07.056Z,16.27
2022-12-15T22:28:27.248Z,17.98
2022-12-15T22:31:31.963Z,18.90
2022-12-15T22:34:37.347Z,20.92
2022-12-15T22:37:43.065Z,17.55
2022-12-15T22:40:51.058Z,17.80
2022-12-15T22:43:57.955Z,17.17
2022-12-15T22:47:04.207Z,16.80
2022-12-15T22:50:17.263Z,16.27
2022-12-15T22:53:22.994Z,15.13
2022-12-15T22:56:39.248Z,14.18
2022-12-15T22:59:51.341Z,16.10
2022-12-15T23:06:04.187Z,15.40
2022-12-15T23:09:08.722Z,14.65
2022-12-15T23:12:13.579Z,15.48
2022-12-15T23:15:36.360Z,16.25
2022-12-15T23:18:41.447Z,16.00
2022-12-15T23:21:46.094Z,17.08
2022-12-15T23:24:50.553Z,15.98
2022-12-15T23:27:55.603Z,15.55
2022-12-15T23:31:00.382Z,15.13
2022-12-15T23:34:05.384Z,14.73
2022-12-15T23:37:10.224Z,14.77
2022-12-15T23:40:21.228Z,15.65
2022-12-15T23:43:27.844Z,16.45
2022-12-15T23:46:38.210Z,15.18
2022-12-15T23:49:43.202Z,16.38
2022-12-15T23:52:51.288Z,15.55
2022-12-15T23:55:56.597Z,15.18
2022-12-15T23:59:01.078Z,15.45
